Time;durP1;ratioP1;P1;durP2;ratioP2;P2;SDS_P1;SDS_P2;PMS_P1;PMS_P2;Temp;Humidity;BMP_temperature;BMP_pressure;BME280_temperature;BME280_humidity;BME280_pressure;Samples;Min_cycle;Max_cycle;Signal;HPM_P1;HPM_P2
2023/08/26 00:01:13;;;;;;;56.87;2.60;;;;;;;;;;5052687;28;20447;-69
2023/08/26 00:03:40;;;;;;;56.97;2.60;;;;;;;;;;5052187;28;20449;-68
2023/08/26 00:06:07;;;;;;;57.00;3.00;;;;;;;;;;5052884;28;20448;-68
2023/08/26 00:08:34;;;;;;;56.73;2.87;;;;;;;;;;5052760;28;20444;-69
2023/08/26 00:11:02;;;;;;;56.30;2.50;;;;;;;;;;5052585;28;20858;-68
2023/08/26 00:13:30;;;;;;;56.50;2.40;;;;;;;;;;5052203;28;20513;-68
2023/08/26 00:15:57;;;;;;;57.23;3.70;;;;;;;;;;5052428;28;20474;-68
2023/08/26 00:18:25;;;;;;;57.47;3.03;;;;;;;;;;5052299;28;20441;-68
2023/08/26 00:20:52;;;;;;;56.47;2.20;;;;;;;;;;5052288;28;20538;-68
2023/08/26 00:23:19;;;;;;;58.50;3.57;;;;;;;;;;5052149;28;20440;-68
2023/08/26 00:25:46;;;;;;;56.90;2.93;;;;;;;;;;5052012;28;20999;-69
2023/08/26 00:28:14;;;;;;;56.67;2.57;;;;;;;;;;5052276;28;20440;-68
2023/08/26 00:30:41;;;;;;;57.10;2.70;;;;;;;;;;5052072;28;20440;-69
2023/08/26 00:33:08;;;;;;;57.17;3.00;;;;;;;;;;5051777;28;20882;-69
2023/08/26 00:35:38;;;;;;;56.67;2.80;;;;;;;;;;5052072;28;20474;-69
2023/08/26 00:38:05;;;;;;;56.47;2.30;;;;;;;;;;5051971;28;20462;-69
2023/08/26 00:40:36;;;;;;;57.10;2.67;;;;;;;;;;5051941;28;20937;-68
2023/08/26 00:43:08;;;;;;;57.00;3.10;;;;;;;;;;5051661;28;20535;-68
2023/08/26 00:45:35;;;;;;;57.03;2.90;;;;;;;;;;5051722;28;20476;-69
2023/08/26 00:48:03;;;;;;;56.87;2.33;;;;;;;;;;5051609;28;20479;-68
2023/08/26 00:50:30;;;;;;;57.10;3.83;;;;;;;;;;5051894;28;20827;-68
2023/08/26 00:52:58;;;;;;;56.43;2.40;;;;;;;;;;5051445;28;20480;-68
2023/08/26 00:55:25;;;;;;;57.17;2.53;;;;;;;;;;5051570;28;20852;-69
2023/08/26 00:57:52;;;;;;;57.30;2.50;;;;;;;;;;5050881;28;20441;-68
2023/08/26 01:00:20;;;;;;;59.17;3.93;;;;;;;;;;5051593;28;20455;-69
2023/08/26 01:02:47;;;;;;;57.17;2.70;;;;;;;;;;5049949;28;20717;-69
2023/08/26 01:05:15;;;;;;;56.37;2.47;;;;;;;;;;5051629;28;20472;-68
2023/08/26 01:07:42;;;;;;;57.33;2.83;;;;;;;;;;5051293;28;20531;-69
2023/08/26 01:10:11;;;;;;;56.80;2.60;;;;;;;;;;5051515;28;20800;-68
2023/08/26 01:12:42;;;;;;;56.47;2.30;;;;;;;;;;5051096;28;20480;-69
2023/08/26 01:15:11;;;;;;;56.47;2.70;;;;;;;;;;5051466;28;20471;-68
2023/08/26 01:17:38;;;;;;;56.50;2.50;;;;;;;;;;5051245;28;20436;-68
2023/08/26 01:20:06;;;;;;;56.60;2.50;;;;;;;;;;5051451;28;20801;-69
2023/08/26 01:22:34;;;;;;;56.83;2.77;;;;;;;;;;5050864;28;20810;-68
2023/08/26 01:25:03;;;;;;;56.73;2.50;;;;;;;;;;5051120;28;20572;-69
2023/08/26 01:27:31;;;;;;;57.00;3.03;;;;;;;;;;5051281;28;20865;-68
2023/08/26 01:29:59;;;;;;;57.10;3.10;;;;;;;;;;5051172;28;20790;-69
2023/08/26 01:32:31;;;;;;;56.50;2.33;;;;;;;;;;5050810;28;20480;-69
2023/08/26 01:34:59;;;;;;;59.20;3.80;;;;;;;;;;5050946;28;20468;-69
2023/08/26 01:37:27;;;;;;;57.40;3.30;;;;;;;;;;5051017;28;20562;-70
2023/08/26 01:39:56;;;;;;;58.20;3.23;;;;;;;;;;5051137;28;20825;-70
2023/08/26 01:42:25;;;;;;;57.03;3.00;;;;;;;;;;5050689;28;20447;-70
2023/08/26 01:44:52;;;;;;;57.10;2.60;;;;;;;;;;5050846;28;20507;-69
2023/08/26 01:47:20;;;;;;;56.93;2.93;;;;;;;;;;5050704;28;20471;-69
2023/08/26 01:49:47;;;;;;;56.47;2.40;;;;;;;;;;5051075;28;20440;-70
2023/08/26 01:52:14;;;;;;;56.90;3.13;;;;;;;;;;5050675;28;20539;-69
2023/08/26 01:54:41;;;;;;;56.67;2.60;;;;;;;;;;5050798;28;20490;-69
2023/08/26 01:57:08;;;;;;;56.40;2.67;;;;;;;;;;5050698;28;20447;-69
2023/08/26 01:59:36;;;;;;;57.87;4.07;;;;;;;;;;5049728;28;20509;-68
2023/08/26 02:04:48;;;;;;;56.97;2.73;;;;;;;;;;5049605;28;20498;-70
2023/08/26 02:07:15;;;;;;;56.43;2.60;;;;;;;;;;5050102;28;20453;-69
2023/08/26 02:09:42;;;;;;;56.70;2.70;;;;;;;;;;5053546;28;20440;-68
2023/08/26 02:12:10;;;;;;;56.60;2.60;;;;;;;;;;5054410;28;20537;-69
2023/08/26 02:14:38;;;;;;;56.90;2.70;;;;;;;;;;5054564;28;20472;-69
2023/08/26 02:17:05;;;;;;;56.33;2.33;;;;;;;;;;5054568;28;20541;-68
2023/08/26 02:19:32;;;;;;;58.03;3.00;;;;;;;;;;5054415;28;20458;-69
2023/08/26 02:22:00;;;;;;;56.70;2.47;;;;;;;;;;5054395;28;20822;-69
2023/08/26 02:24:29;;;;;;;57.97;3.40;;;;;;;;;;5054498;28;20575;-68
2023/08/26 02:26:56;;;;;;;57.27;2.90;;;;;;;;;;5054389;28;20448;-69
2023/08/26 02:29:23;;;;;;;56.47;2.33;;;;;;;;;;5054320;28;20827;-68
2023/08/26 02:31:51;;;;;;;56.20;2.10;;;;;;;;;;5053793;28;20484;-69
2023/08/26 02:34:18;;;;;;;56.80;2.70;;;;;;;;;;5054309;28;20839;-68
2023/08/26 02:36:45;;;;;;;56.57;2.30;;;;;;;;;;5054193;28;20460;-69
2023/08/26 02:39:13;;;;;;;56.57;2.93;;;;;;;;;;5054409;28;20471;-68
2023/08/26 02:41:40;;;;;;;56.47;2.40;;;;;;;;;;5054018;28;20813;-68
2023/08/26 02:44:08;;;;;;;56.67;2.33;;;;;;;;;;5053897;28;20499;-68
2023/08/26 02:46:35;;;;;;;56.47;2.43;;;;;;;;;;5054267;28;20454;-68
2023/08/26 02:49:04;;;;;;;56.70;2.40;;;;;;;;;;5054179;28;20444;-69
2023/08/26 02:51:31;;;;;;;56.17;2.20;;;;;;;;;;5053806;28;20452;-68
2023/08/26 02:53:58;;;;;;;56.50;2.20;;;;;;;;;;5054078;28;20551;-68
2023/08/26 02:56:25;;;;;;;56.23;2.40;;;;;;;;;;5053814;28;20444;-69
2023/08/26 02:58:52;;;;;;;56.70;2.83;;;;;;;;;;5053674;28;20937;-68
2023/08/26 03:01:20;;;;;;;56.83;2.73;;;;;;;;;;5053896;28;20448;-68
2023/08/26 03:03:47;;;;;;;57.00;2.43;;;;;;;;;;5053309;28;20464;-69
2023/08/26 03:06:15;;;;;;;56.50;2.33;;;;;;;;;;5053659;28;20446;-68
2023/08/26 03:08:43;;;;;;;56.30;2.27;;;;;;;;;;5053512;28;20451;-69
2023/08/26 03:11:10;;;;;;;57.07;3.03;;;;;;;;;;5053497;28;20962;-68
2023/08/26 03:13:37;;;;;;;57.00;2.60;;;;;;;;;;5052970;28;20498;-68
2023/08/26 03:16:08;;;;;;;56.60;2.50;;;;;;;;;;5053337;28;20450;-68
2023/08/26 03:18:35;;;;;;;56.90;2.67;;;;;;;;;;5053425;28;20476;-69
2023/08/26 03:21:05;;;;;;;56.27;2.30;;;;;;;;;;5052788;28;20523;-68
2023/08/26 03:23:34;;;;;;;56.37;2.30;;;;;;;;;;5053147;28;20440;-68
2023/08/26 03:26:01;;;;;;;56.33;2.40;;;;;;;;;;5053205;28;20444;-70
2023/08/26 03:28:28;;;;;;;56.60;2.33;;;;;;;;;;5053402;28;20448;-68
2023/08/26 03:30:55;;;;;;;57.07;2.80;;;;;;;;;;5053377;28;20467;-69
2023/08/26 03:33:22;;;;;;;56.43;2.50;;;;;;;;;;5052953;28;20488;-69
2023/08/26 03:35:49;;;;;;;56.43;2.30;;;;;;;;;;5052944;28;21069;-69
2023/08/26 03:38:17;;;;;;;57.10;3.13;;;;;;;;;;5053017;28;20470;-68
2023/08/26 03:40:46;;;;;;;56.17;2.20;;;;;;;;;;5052955;28;20444;-68
2023/08/26 03:43:13;;;;;;;58.60;3.77;;;;;;;;;;5052833;28;20448;-68
2023/08/26 03:45:40;;;;;;;57.10;2.50;;;;;;;;;;5052921;28;20471;-69
2023/08/26 03:48:08;;;;;;;56.47;2.33;;;;;;;;;;5052833;28;20952;-69
2023/08/26 03:50:35;;;;;;;56.47;2.47;;;;;;;;;;5052833;28;20449;-68
2023/08/26 03:53:03;;;;;;;56.70;2.70;;;;;;;;;;5052487;28;20490;-69
2023/08/26 03:55:30;;;;;;;56.70;2.53;;;;;;;;;;5052502;28;20500;-68
2023/08/26 03:57:59;;;;;;;56.87;3.00;;;;;;;;;;5052823;28;20527;-68
2023/08/26 04:00:26;;;;;;;57.00;3.03;;;;;;;;;;5052610;28;20498;-68
2023/08/26 04:02:53;;;;;;;57.97;3.63;;;;;;;;;;5052615;28;20455;-68
2023/08/26 04:05:20;;;;;;;56.33;2.30;;;;;;;;;;5052510;28;20461;-69
2023/08/26 04:07:47;;;;;;;57.30;3.90;;;;;;;;;;5052361;28;20452;-68
2023/08/26 04:10:15;;;;;;;57.00;3.07;;;;;;;;;;5052597;28;20448;-68
2023/08/26 04:12:42;;;;;;;56.80;2.50;;;;;;;;;;5052153;28;20484;-68
2023/08/26 04:15:11;;;;;;;56.80;2.43;;;;;;;;;;5052258;28;20468;-68
2023/08/26 04:17:38;;;;;;;58.50;2.80;;;;;;;;;;5052272;28;20478;-69
2023/08/26 04:20:06;;;;;;;57.10;2.80;;;;;;;;;;5052197;28;20491;-69
2023/08/26 04:22:33;;;;;;;56.70;2.87;;;;;;;;;;5051860;28;20440;-68
2023/08/26 04:25:00;;;;;;;56.47;2.50;;;;;;;;;;5052186;28;20844;-69
2023/08/26 04:27:28;;;;;;;56.60;2.50;;;;;;;;;;5052071;28;20446;-69
2023/08/26 04:29:55;;;;;;;57.20;4.10;;;;;;;;;;5052103;28;20441;-69
2023/08/26 04:32:23;;;;;;;56.80;2.80;;;;;;;;;;5050644;28;20484;-69
2023/08/26 04:34:51;;;;;;;56.60;2.40;;;;;;;;;;5051769;28;20464;-69
2023/08/26 04:37:20;;;;;;;56.87;2.27;;;;;;;;;;5051778;28;20460;-69
2023/08/26 04:39:47;;;;;;;56.40;2.53;;;;;;;;;;5052004;28;20941;-68
2023/08/26 04:42:14;;;;;;;57.83;2.73;;;;;;;;;;5051750;28;20441;-68
2023/08/26 04:44:41;;;;;;;56.80;2.93;;;;;;;;;;5051717;28;20472;-69
2023/08/26 04:47:09;;;;;;;56.57;2.50;;;;;;;;;;5051725;28;20455;-69
2023/08/26 04:49:37;;;;;;;56.37;2.60;;;;;;;;;;5051569;28;20940;-68
2023/08/26 04:52:04;;;;;;;56.37;2.40;;;;;;;;;;5051498;28;20448;-68
2023/08/26 04:54:31;;;;;;;58.97;3.70;;;;;;;;;;5051387;28;20502;-69
2023/08/26 04:56:58;;;;;;;58.03;2.60;;;;;;;;;;5051630;28;20455;-68
2023/08/26 04:59:26;;;;;;;56.27;2.20;;;;;;;;;;5051517;28;20459;-68
2023/08/26 05:01:53;;;;;;;56.43;2.37;;;;;;;;;;5051120;28;20931;-68
2023/08/26 05:04:20;;;;;;;56.80;2.90;;;;;;;;;;5051494;28;20493;-69
2023/08/26 05:06:48;;;;;;;56.90;2.50;;;;;;;;;;5051521;28;20451;-69
2023/08/26 05:09:15;;;;;;;56.90;2.50;;;;;;;;;;5051485;28;20448;-69
2023/08/26 05:11:43;;;;;;;56.60;2.43;;;;;;;;;;5051060;28;20444;-69
2023/08/26 05:14:10;;;;;;;56.90;2.90;;;;;;;;;;5051034;28;20527;-69
2023/08/26 05:16:37;;;;;;;57.20;2.80;;;;;;;;;;5051110;28;20825;-69
2023/08/26 05:19:04;;;;;;;56.67;2.80;;;;;;;;;;5051567;28;20444;-70
2023/08/26 05:21:31;;;;;;;56.60;2.33;;;;;;;;;;5051076;28;20455;-69
2023/08/26 05:24:03;;;;;;;57.03;3.10;;;;;;;;;;5050986;28;20460;-69
2023/08/26 05:26:30;;;;;;;56.57;2.40;;;;;;;;;;5051112;28;20451;-69
2023/08/26 05:28:57;;;;;;;56.57;2.20;;;;;;;;;;5050906;28;20790;-69
2023/08/26 05:31:24;;;;;;;56.83;2.20;;;;;;;;;;5051183;28;20447;-69
2023/08/26 05:33:51;;;;;;;57.53;2.80;;;;;;;;;;5050764;28;20492;-69
2023/08/26 05:36:18;;;;;;;57.10;2.77;;;;;;;;;;5050933;28;20448;-68
2023/08/26 05:38:46;;;;;;;56.70;2.73;;;;;;;;;;5051052;28;20471;-68
2023/08/26 05:41:14;;;;;;;57.77;2.87;;;;;;;;;;5050856;28;20820;-70
2023/08/26 05:43:41;;;;;;;57.23;3.23;;;;;;;;;;5050130;28;20444;-70
2023/08/26 05:46:08;;;;;;;56.60;2.67;;;;;;;;;;5051120;28;20733;-70
2023/08/26 05:48:35;;;;;;;56.30;2.47;;;;;;;;;;5050975;28;20451;-70
2023/08/26 05:51:03;;;;;;;56.70;2.73;;;;;;;;;;5050775;28;20455;-69
2023/08/26 05:53:30;;;;;;;61.60;4.30;;;;;;;;;;5050441;28;20487;-70
2023/08/26 05:55:58;;;;;;;57.00;2.70;;;;;;;;;;5050658;28;20448;-70
2023/08/26 05:58:26;;;;;;;58.40;3.40;;;;;;;;;;5050692;28;20452;-71
2023/08/26 06:00:53;;;;;;;56.80;2.50;;;;;;;;;;5050843;28;20440;-70
2023/08/26 06:03:21;;;;;;;56.57;2.23;;;;;;;;;;5050579;28;20448;-70
2023/08/26 06:05:48;;;;;;;56.47;2.30;;;;;;;;;;5050567;28;20834;-70
2023/08/26 06:08:15;;;;;;;56.57;2.63;;;;;;;;;;5050717;28;20448;-70
2023/08/26 06:10:42;;;;;;;57.00;2.77;;;;;;;;;;5050515;28;20445;-70
2023/08/26 06:13:09;;;;;;;56.67;2.70;;;;;;;;;;5050231;28;21000;-70
2023/08/26 06:15:38;;;;;;;57.00;2.50;;;;;;;;;;5050398;28;21026;-69
2023/08/26 06:18:05;;;;;;;56.60;2.70;;;;;;;;;;5050491;28;20960;-69
2023/08/26 06:20:32;;;;;;;56.27;2.17;;;;;;;;;;5050408;28;20455;-69
2023/08/26 06:23:00;;;;;;;57.57;3.07;;;;;;;;;;5050323;28;20511;-69
2023/08/26 06:25:27;;;;;;;56.50;2.70;;;;;;;;;;5050224;28;20522;-69
2023/08/26 06:27:54;;;;;;;55.97;1.90;;;;;;;;;;5050577;28;20447;-70
2023/08/26 06:30:22;;;;;;;56.90;2.73;;;;;;;;;;5050574;28;21122;-69
2023/08/26 06:32:50;;;;;;;57.47;2.73;;;;;;;;;;5050175;28;20843;-69
2023/08/26 06:35:18;;;;;;;56.70;2.47;;;;;;;;;;5050225;28;20476;-69
2023/08/26 06:37:45;;;;;;;57.27;2.97;;;;;;;;;;5050121;28;20460;-69
2023/08/26 06:40:12;;;;;;;56.60;2.53;;;;;;;;;;5050327;28;20458;-69
2023/08/26 06:42:39;;;;;;;56.80;2.60;;;;;;;;;;5050048;28;20440;-69
2023/08/26 06:45:07;;;;;;;56.50;2.40;;;;;;;;;;5050198;28;21073;-69
2023/08/26 06:47:34;;;;;;;56.90;3.07;;;;;;;;;;5050185;28;20440;-70
2023/08/26 06:50:03;;;;;;;56.27;2.03;;;;;;;;;;5050211;28;20441;-69
2023/08/26 06:52:30;;;;;;;56.63;2.57;;;;;;;;;;5049806;28;20641;-69
2023/08/26 06:54:57;;;;;;;56.50;2.30;;;;;;;;;;5050262;28;20488;-69
2023/08/26 06:57:24;;;;;;;57.00;3.00;;;;;;;;;;5053745;28;20451;-69
2023/08/26 06:59:51;;;;;;;56.50;2.50;;;;;;;;;;5053877;28;20448;-69
2023/08/26 07:02:18;;;;;;;57.90;2.83;;;;;;;;;;5053463;28;20444;-68
2023/08/26 07:04:45;;;;;;;56.90;3.00;;;;;;;;;;5053540;28;21039;-68
2023/08/26 07:07:14;;;;;;;57.50;2.57;;;;;;;;;;5053723;28;20448;-68
2023/08/26 07:09:41;;;;;;;56.60;2.93;;;;;;;;;;5053549;28;21062;-68
2023/08/26 07:12:08;;;;;;;56.23;2.20;;;;;;;;;;5053380;28;20451;-67
2023/08/26 07:14:35;;;;;;;56.27;2.30;;;;;;;;;;5053360;28;20871;-69
2023/08/26 07:17:02;;;;;;;56.60;2.50;;;;;;;;;;5053429;28;20448;-68
2023/08/26 07:19:29;;;;;;;56.80;2.97;;;;;;;;;;5053212;28;20455;-68
2023/08/26 07:21:57;;;;;;;56.60;2.57;;;;;;;;;;5053228;28;20450;-67
2023/08/26 07:24:25;;;;;;;56.30;2.23;;;;;;;;;;5053320;28;20471;-68
2023/08/26 07:26:52;;;;;;;56.50;2.30;;;;;;;;;;5053261;28;20554;-68
2023/08/26 07:29:19;;;;;;;56.60;3.10;;;;;;;;;;5053310;28;20452;-69
2023/08/26 07:31:46;;;;;;;57.17;2.60;;;;;;;;;;5052920;28;20531;-68
2023/08/26 07:34:13;;;;;;;57.63;2.93;;;;;;;;;;5052840;28;20506;-68
2023/08/26 07:36:41;;;;;;;56.90;2.83;;;;;;;;;;5052839;28;20456;-68
2023/08/26 07:39:08;;;;;;;56.57;2.60;;;;;;;;;;5053183;28;20445;-69
2023/08/26 07:41:36;;;;;;;56.37;2.33;;;;;;;;;;5052831;28;20940;-68
2023/08/26 07:44:04;;;;;;;56.70;2.30;;;;;;;;;;5052784;28;20468;-68
2023/08/26 07:46:31;;;;;;;56.07;2.37;;;;;;;;;;5052637;28;20458;-67
2023/08/26 07:48:58;;;;;;;56.30;2.10;;;;;;;;;;5052891;28;20883;-68
2023/08/26 07:51:25;;;;;;;56.17;2.17;;;;;;;;;;5052826;28;20447;-67
2023/08/26 07:53:52;;;;;;;56.70;2.80;;;;;;;;;;5052481;28;20491;-68
2023/08/26 07:56:19;;;;;;;56.97;4.00;;;;;;;;;;5052520;28;21002;-66
2023/08/26 07:58:48;;;;;;;56.10;1.90;;;;;;;;;;5052625;28;20820;-67
2023/08/26 08:01:15;;;;;;;56.67;2.10;;;;;;;;;;5052383;28;20602;-67
2023/08/26 08:03:42;;;;;;;56.27;2.20;;;;;;;;;;5052107;28;20444;-67
2023/08/26 08:06:09;;;;;;;55.70;1.90;;;;;;;;;;5052235;28;20456;-68
2023/08/26 08:08:36;;;;;;;56.30;2.10;;;;;;;;;;5052504;28;20444;-68
2023/08/26 08:11:04;;;;;;;56.17;2.10;;;;;;;;;;5052543;28;20657;-67
2023/08/26 08:13:31;;;;;;;56.50;2.13;;;;;;;;;;5051811;28;20543;-68
2023/08/26 08:15:59;;;;;;;57.43;2.63;;;;;;;;;;5052434;28;20450;-67
2023/08/26 08:18:27;;;;;;;60.93;2.40;;;;;;;;;;5052196;28;20932;-68
2023/08/26 08:20:54;;;;;;;56.57;2.83;;;;;;;;;;5052280;28;20450;-68
2023/08/26 08:23:21;;;;;;;60.53;2.77;;;;;;;;;;5051886;28;20452;-67
2023/08/26 08:25:48;;;;;;;57.20;3.43;;;;;;;;;;5052031;28;21093;-67
2023/08/26 08:28:16;;;;;;;56.20;1.90;;;;;;;;;;5052030;28;20440;-68
2023/08/26 08:30:43;;;;;;;56.27;2.03;;;;;;;;;;5052254;28;20612;-68
2023/08/26 08:33:11;;;;;;;56.17;1.83;;;;;;;;;;5051669;28;20483;-68
2023/08/26 08:35:38;;;;;;;56.77;2.30;;;;;;;;;;5051674;28;20495;-68
2023/08/26 08:38:06;;;;;;;56.23;1.80;;;;;;;;;;5051745;28;20847;-68
2023/08/26 08:40:33;;;;;;;56.27;1.90;;;;;;;;;;5051702;28;20448;-68
2023/08/26 08:43:00;;;;;;;57.17;2.50;;;;;;;;;;5051722;28;20448;-68
2023/08/26 08:45:27;;;;;;;57.17;2.67;;;;;;;;;;5051739;28;20790;-68
2023/08/26 08:47:55;;;;;;;57.03;2.53;;;;;;;;;;5051802;28;20451;-68
2023/08/26 08:50:24;;;;;;;56.47;2.70;;;;;;;;;;5051581;28;20452;-68
2023/08/26 08:52:53;;;;;;;57.00;2.20;;;;;;;;;;5051349;28;20455;-68
2023/08/26 08:55:20;;;;;;;56.30;2.17;;;;;;;;;;5051179;28;20496;-68
2023/08/26 08:57:49;;;;;;;57.17;2.80;;;;;;;;;;5051550;28;20548;-68
2023/08/26 09:00:16;;;;;;;56.40;2.00;;;;;;;;;;5051649;28;20551;-68
2023/08/26 09:02:45;;;;;;;56.60;2.87;;;;;;;;;;5051061;28;20444;-69
2023/08/26 09:05:13;;;;;;;56.37;2.00;;;;;;;;;;5051253;28;20471;-68
2023/08/26 09:07:42;;;;;;;56.67;3.07;;;;;;;;;;5051200;28;20448;-69
2023/08/26 09:10:11;;;;;;;56.77;2.70;;;;;;;;;;5051493;28;20820;-68
2023/08/26 09:12:38;;;;;;;56.60;2.50;;;;;;;;;;5051467;28;20547;-68
2023/08/26 09:15:05;;;;;;;56.30;2.10;;;;;;;;;;5051190;28;20966;-68
2023/08/26 09:17:33;;;;;;;56.27;2.10;;;;;;;;;;5051213;28;20475;-68
2023/08/26 09:20:00;;;;;;;56.40;2.27;;;;;;;;;;5050560;28;20446;-68
2023/08/26 09:22:28;;;;;;;56.70;2.10;;;;;;;;;;5050730;28;20452;-69
2023/08/26 09:24:57;;;;;;;57.40;2.20;;;;;;;;;;5051177;28;20463;-69
2023/08/26 09:27:24;;;;;;;56.33;1.83;;;;;;;;;;5050981;28;20823;-69
2023/08/26 09:29:52;;;;;;;57.37;2.60;;;;;;;;;;5051108;28;20444;-69
2023/08/26 09:32:32;;;;;;;55.57;2.23;;;;;;;;;;5051118;28;20447;-68
2023/08/26 09:35:09;;;;;;;56.20;1.97;;;;;;;;;;5050625;28;20510;-69
2023/08/26 09:37:36;;;;;;;57.00;3.00;;;;;;;;;;5050891;28;20505;-69
2023/08/26 09:40:05;;;;;;;56.07;1.93;;;;;;;;;;5050938;28;20850;-69
2023/08/26 09:42:32;;;;;;;55.93;2.10;;;;;;;;;;5050611;28;20936;-69
2023/08/26 09:45:00;;;;;;;56.07;2.20;;;;;;;;;;5050742;28;20468;-70
2023/08/26 09:47:29;;;;;;;56.53;2.57;;;;;;;;;;5050667;28;20466;-70
2023/08/26 09:49:56;;;;;;;56.60;1.80;;;;;;;;;;5050669;28;21268;-69
2023/08/26 09:52:23;;;;;;;56.47;2.10;;;;;;;;;;5050571;28;20836;-70
2023/08/26 09:54:50;;;;;;;56.23;2.10;;;;;;;;;;5050669;28;20495;-70
2023/08/26 09:57:19;;;;;;;56.63;2.00;;;;;;;;;;5050678;28;20444;-70
2023/08/26 09:59:46;;;;;;;56.30;2.33;;;;;;;;;;5050566;28;20769;-70
2023/08/26 10:02:18;;;;;;;56.30;2.40;;;;;;;;;;5050657;28;20443;-70
2023/08/26 10:04:46;;;;;;;56.30;2.40;;;;;;;;;;5050504;28;20469;-70
2023/08/26 10:07:13;;;;;;;57.27;3.00;;;;;;;;;;5050800;28;20445;-70
2023/08/26 10:09:41;;;;;;;57.33;2.73;;;;;;;;;;5050590;28;20452;-70
2023/08/26 10:12:14;;;;;;;55.93;1.90;;;;;;;;;;5050272;28;20444;-71
2023/08/26 10:14:43;;;;;;;56.03;1.83;;;;;;;;;;5050323;28;20502;-70
2023/08/26 10:17:12;;;;;;;56.17;1.93;;;;;;;;;;5050622;28;20540;-70
2023/08/26 10:19:40;;;;;;;57.23;2.20;;;;;;;;;;5050537;28;20450;-70
2023/08/26 10:22:07;;;;;;;56.40;2.47;;;;;;;;;;5050341;28;20458;-70
2023/08/26 10:24:34;;;;;;;56.80;2.50;;;;;;;;;;5050354;28;20956;-71
2023/08/26 10:27:02;;;;;;;56.40;2.00;;;;;;;;;;5050198;28;20887;-70
2023/08/26 10:29:30;;;;;;;56.13;2.40;;;;;;;;;;5051197;28;20502;-70
2023/08/26 10:32:15;;;;;;;56.40;2.20;;;;;;;;;;5054068;28;20448;-69
2023/08/26 10:34:52;;;;;;;56.50;2.37;;;;;;;;;;5054136;28;20484;-69
2023/08/26 10:37:20;;;;;;;57.77;2.40;;;;;;;;;;5053902;28;20459;-69
2023/08/26 10:39:47;;;;;;;56.17;2.07;;;;;;;;;;5054359;28;20444;-69
2023/08/26 10:42:16;;;;;;;56.47;2.30;;;;;;;;;;5053799;28;20443;-70
2023/08/26 10:44:44;;;;;;;57.33;2.47;;;;;;;;;;5054031;28;20464;-69
2023/08/26 10:47:12;;;;;;;56.40;1.90;;;;;;;;;;5053905;28;20840;-69
2023/08/26 10:49:40;;;;;;;56.10;2.10;;;;;;;;;;5053986;28;20440;-69
2023/08/26 10:52:17;;;;;;;56.90;2.87;;;;;;;;;;5054107;28;20446;-69
2023/08/26 10:54:44;;;;;;;56.37;2.03;;;;;;;;;;5053710;28;20561;-69
2023/08/26 10:57:12;;;;;;;56.90;2.47;;;;;;;;;;5053849;28;20474;-69
2023/08/26 10:59:40;;;;;;;57.57;2.60;;;;;;;;;;5053928;28;20839;-69
2023/08/26 11:02:09;;;;;;;55.93;2.10;;;;;;;;;;5053451;28;21237;-69
2023/08/26 11:04:42;;;;;;;56.93;2.50;;;;;;;;;;5053454;28;20460;-69
2023/08/26 11:07:14;;;;;;;56.30;2.20;;;;;;;;;;5053749;28;20448;-69
2023/08/26 11:09:42;;;;;;;56.90;2.23;;;;;;;;;;5053649;28;20835;-69
2023/08/26 11:12:23;;;;;;;56.17;2.10;;;;;;;;;;5053615;28;20535;-69
2023/08/26 11:14:50;;;;;;;56.00;1.90;;;;;;;;;;5053236;28;20490;-69
2023/08/26 11:17:17;;;;;;;56.20;2.00;;;;;;;;;;5053468;28;20959;-69
2023/08/26 11:19:45;;;;;;;61.90;2.00;;;;;;;;;;5053730;28;20452;-69
2023/08/26 11:22:14;;;;;;;56.97;2.30;;;;;;;;;;5053258;28;20794;-69
2023/08/26 11:24:47;;;;;;;56.40;2.30;;;;;;;;;;5053292;28;20460;-69
2023/08/26 11:27:14;;;;;;;56.20;2.00;;;;;;;;;;5053243;28;20440;-70
2023/08/26 11:29:41;;;;;;;55.97;1.90;;;;;;;;;;5053158;28;20470;-70
2023/08/26 11:32:08;;;;;;;56.13;2.20;;;;;;;;;;5053150;28;20456;-70
2023/08/26 11:34:36;;;;;;;56.13;1.80;;;;;;;;;;5053133;28;20483;-70
2023/08/26 11:37:05;;;;;;;56.60;2.30;;;;;;;;;;5052952;28;20452;-70
2023/08/26 11:39:34;;;;;;;56.70;2.20;;;;;;;;;;5053042;28;20870;-71
2023/08/26 11:42:02;;;;;;;55.70;1.70;;;;;;;;;;5052058;28;21012;-68
2023/08/26 11:44:29;;;;;;;56.20;1.60;;;;;;;;;;5052859;28;21012;-69
2023/08/26 11:46:57;;;;;;;56.27;2.20;;;;;;;;;;5052931;28;20444;-69
2023/08/26 11:49:25;;;;;;;56.30;2.10;;;;;;;;;;5052961;28;20518;-69
2023/08/26 11:51:52;;;;;;;56.70;2.23;;;;;;;;;;5052576;28;20458;-69
2023/08/26 11:54:25;;;;;;;56.40;2.47;;;;;;;;;;5052613;28;20496;-69
2023/08/26 11:56:52;;;;;;;56.07;2.07;;;;;;;;;;5052933;28;20467;-68
2023/08/26 11:59:20;;;;;;;56.33;2.37;;;;;;;;;;5052692;28;20440;-69
2023/08/26 12:01:47;;;;;;;56.30;1.90;;;;;;;;;;5052421;28;20444;-69
2023/08/26 12:04:14;;;;;;;56.10;1.80;;;;;;;;;;5052481;28;20984;-69
2023/08/26 12:06:41;;;;;;;55.97;1.77;;;;;;;;;;5052648;28;20433;-69
2023/08/26 12:09:11;;;;;;;56.20;2.20;;;;;;;;;;5052503;28;20832;-69
2023/08/26 12:11:42;;;;;;;56.10;2.23;;;;;;;;;;5052242;28;20969;-69
2023/08/26 12:14:18;;;;;;;56.60;2.53;;;;;;;;;;5052480;28;20488;-69
2023/08/26 12:16:46;;;;;;;56.70;2.53;;;;;;;;;;5052006;28;20475;-69
2023/08/26 12:19:17;;;;;;;57.50;2.87;;;;;;;;;;5052288;28;20456;-70
2023/08/26 12:21:44;;;;;;;56.40;2.10;;;;;;;;;;5051926;28;20455;-69
2023/08/26 12:24:11;;;;;;;56.37;2.07;;;;;;;;;;5052091;28;20984;-69
2023/08/26 12:26:40;;;;;;;61.83;2.33;;;;;;;;;;5052305;28;20533;-69
2023/08/26 12:29:07;;;;;;;57.93;3.80;;;;;;;;;;5052069;28;20451;-70
2023/08/26 12:31:34;;;;;;;56.17;2.10;;;;;;;;;;5052060;28;20457;-69
2023/08/26 12:34:02;;;;;;;56.07;1.80;;;;;;;;;;5051723;28;20464;-70
2023/08/26 12:36:30;;;;;;;57.20;1.93;;;;;;;;;;5051705;28;20480;-70
2023/08/26 12:38:57;;;;;;;57.30;2.77;;;;;;;;;;5052011;28;20441;-69
2023/08/26 12:41:24;;;;;;;57.20;2.40;;;;;;;;;;5052087;28;20444;-70
2023/08/26 12:43:55;;;;;;;57.37;2.67;;;;;;;;;;5051622;28;20559;-69
2023/08/26 12:46:22;;;;;;;56.40;2.00;;;;;;;;;;5051722;28;20901;-69
2023/08/26 12:48:49;;;;;;;56.53;2.30;;;;;;;;;;5051705;28;20455;-69
2023/08/26 12:51:16;;;;;;;57.83;3.37;;;;;;;;;;5051943;28;20450;-69
2023/08/26 12:53:44;;;;;;;56.83;2.47;;;;;;;;;;5050626;28;20449;-69
2023/08/26 12:56:11;;;;;;;56.53;2.27;;;;;;;;;;5051995;28;20855;-69
2023/08/26 12:58:38;;;;;;;56.57;2.30;;;;;;;;;;5051670;28;20947;-69
2023/08/26 13:01:07;;;;;;;56.50;2.23;;;;;;;;;;5051656;28;20451;-69
2023/08/26 13:03:34;;;;;;;57.20;2.77;;;;;;;;;;5051557;28;20880;-70
2023/08/26 13:06:01;;;;;;;56.87;2.40;;;;;;;;;;5051632;28;20444;-69
2023/08/26 13:08:28;;;;;;;56.93;2.80;;;;;;;;;;5051653;28;20547;-69
2023/08/26 13:10:56;;;;;;;56.57;2.43;;;;;;;;;;5051392;28;20450;-69
2023/08/26 13:13:23;;;;;;;57.17;2.70;;;;;;;;;;5051089;28;20449;-69
2023/08/26 13:15:50;;;;;;;57.00;2.83;;;;;;;;;;5050888;28;20561;-69
2023/08/26 13:18:18;;;;;;;56.80;2.50;;;;;;;;;;5051512;28;20448;-69
2023/08/26 13:20:47;;;;;;;56.33;2.20;;;;;;;;;;5051399;28;20441;-69
2023/08/26 13:23:14;;;;;;;56.80;2.40;;;;;;;;;;5051103;28;20531;-70
2023/08/26 13:25:41;;;;;;;56.80;2.43;;;;;;;;;;5051127;28;20462;-70
2023/08/26 13:28:09;;;;;;;56.87;2.40;;;;;;;;;;5051113;28;20448;-70
2023/08/26 13:30:36;;;;;;;56.63;2.30;;;;;;;;;;5051022;28;20956;-70
2023/08/26 13:33:03;;;;;;;56.87;2.57;;;;;;;;;;5050994;28;20451;-70
2023/08/26 13:35:32;;;;;;;56.50;2.30;;;;;;;;;;5050805;28;20988;-69
2023/08/26 13:37:59;;;;;;;56.50;2.60;;;;;;;;;;5050848;28;20471;-69
2023/08/26 13:40:26;;;;;;;56.97;2.33;;;;;;;;;;5050880;28;20958;-70
2023/08/26 13:42:55;;;;;;;58.77;3.17;;;;;;;;;;5050551;28;20476;-71
2023/08/26 13:45:22;;;;;;;57.10;2.70;;;;;;;;;;5051016;28;20476;-70
2023/08/26 13:47:49;;;;;;;56.40;2.30;;;;;;;;;;5051088;28;20448;-71
2023/08/26 13:50:17;;;;;;;56.90;2.80;;;;;;;;;;5051006;28;20452;-70
2023/08/26 13:52:45;;;;;;;57.00;2.90;;;;;;;;;;5050525;28;20449;-70
2023/08/26 13:55:13;;;;;;;56.70;2.20;;;;;;;;;;5050548;28;20464;-70
2023/08/26 13:57:40;;;;;;;57.50;2.70;;;;;;;;;;5050573;28;20993;-70
2023/08/26 14:00:08;;;;;;;56.63;2.40;;;;;;;;;;5050680;28;20452;-70
2023/08/26 14:02:35;;;;;;;57.00;2.60;;;;;;;;;;5050542;28;20444;-71
2023/08/26 14:05:02;;;;;;;59.10;2.80;;;;;;;;;;5052293;28;20487;-69
2023/08/26 14:07:29;;;;;;;56.47;2.40;;;;;;;;;;5054818;28;20475;-70
2023/08/26 14:09:58;;;;;;;56.57;2.43;;;;;;;;;;5054723;28;20447;-70
2023/08/26 14:12:25;;;;;;;56.60;2.20;;;;;;;;;;5054621;28;20871;-69
2023/08/26 14:14:52;;;;;;;56.90;2.63;;;;;;;;;;5054749;28;20460;-69
2023/08/26 14:17:19;;;;;;;56.30;2.50;;;;;;;;;;5054350;28;21041;-70
2023/08/26 14:19:47;;;;;;;56.57;2.40;;;;;;;;;;5054649;28;20459;-70
2023/08/26 14:22:14;;;;;;;56.67;2.20;;;;;;;;;;5054257;28;20753;-70
2023/08/26 14:24:43;;;;;;;56.80;2.70;;;;;;;;;;5054360;28;20474;-70
2023/08/26 14:27:11;;;;;;;56.37;2.50;;;;;;;;;;5054534;28;20440;-69
2023/08/26 14:29:39;;;;;;;56.37;2.10;;;;;;;;;;5054523;28;20452;-70
2023/08/26 14:32:06;;;;;;;56.43;2.30;;;;;;;;;;5054142;28;20447;-69
2023/08/26 14:34:33;;;;;;;56.60;2.40;;;;;;;;;;5054232;28;20479;-70
2023/08/26 14:37:00;;;;;;;56.57;2.40;;;;;;;;;;5053905;28;20509;-71